sensor_id;sensor_type;location;lat;lon;timestamp;P1;durP1;ratioP1;P2;durP2;ratioP2
9128;SDS011;4599;50.906;6.786;2022-08-25T00:01:06;4.30;;;2.93;;
9128;SDS011;4599;50.906;6.786;2022-08-25T00:05:10;5.07;;;2.50;;
9128;SDS011;4599;50.906;6.786;2022-08-25T00:09:14;10.87;;;2.50;;
9128;SDS011;4599;50.906;6.786;2022-08-25T00:13:17;8.00;;;2.47;;
9128;SDS011;4599;50.906;6.786;2022-08-25T00:17:19;5.83;;;2.30;;
9128;SDS011;4599;50.906;6.786;2022-08-25T00:21:24;5.13;;;2.47;;
9128;SDS011;4599;50.906;6.786;2022-08-25T00:25:28;2.77;;;2.40;;
9128;SDS011;4599;50.906;6.786;2022-08-25T00:29:31;3.40;;;2.20;;
9128;SDS011;4599;50.906;6.786;2022-08-25T00:33:33;5.80;;;2.70;;
9128;SDS011;4599;50.906;6.786;2022-08-25T00:37:35;5.23;;;2.70;;
9128;SDS011;4599;50.906;6.786;2022-08-25T00:41:39;2.90;;;2.27;;
9128;SDS011;4599;50.906;6.786;2022-08-25T00:45:42;3.97;;;2.90;;
9128;SDS011;4599;50.906;6.786;2022-08-25T00:49:46;7.27;;;3.00;;
9128;SDS011;4599;50.906;6.786;2022-08-25T00:53:49;5.57;;;2.73;;
9128;SDS011;4599;50.906;6.786;2022-08-25T00:57:54;4.97;;;2.63;;
9128;SDS011;4599;50.906;6.786;2022-08-25T01:01:57;7.67;;;2.80;;
9128;SDS011;4599;50.906;6.786;2022-08-25T01:06:00;3.97;;;2.53;;
9128;SDS011;4599;50.906;6.786;2022-08-25T01:10:04;5.03;;;2.70;;
9128;SDS011;4599;50.906;6.786;2022-08-25T01:14:09;3.80;;;2.60;;
9128;SDS011;4599;50.906;6.786;2022-08-25T01:18:12;4.40;;;2.73;;
9128;SDS011;4599;50.906;6.786;2022-08-25T01:22:15;5.30;;;2.30;;
9128;SDS011;4599;50.906;6.786;2022-08-25T01:26:18;4.73;;;2.77;;
9128;SDS011;4599;50.906;6.786;2022-08-25T01:30:31;6.40;;;2.50;;
9128;SDS011;4599;50.906;6.786;2022-08-25T01:34:33;3.10;;;2.30;;
9128;SDS011;4599;50.906;6.786;2022-08-25T01:38:38;3.90;;;2.40;;
9128;SDS011;4599;50.906;6.786;2022-08-25T01:42:41;3.40;;;2.40;;
9128;SDS011;4599;50.906;6.786;2022-08-25T01:46:52;5.67;;;2.30;;
9128;SDS011;4599;50.906;6.786;2022-08-25T01:50:54;4.60;;;2.30;;
9128;SDS011;4599;50.906;6.786;2022-08-25T01:54:58;5.77;;;2.40;;
9128;SDS011;4599;50.906;6.786;2022-08-25T01:58:59;2.40;;;2.20;;
9128;SDS011;4599;50.906;6.786;2022-08-25T02:03:01;2.83;;;1.83;;
9128;SDS011;4599;50.906;6.786;2022-08-25T02:07:06;4.13;;;2.30;;
9128;SDS011;4599;50.906;6.786;2022-08-25T02:11:10;5.90;;;2.20;;
9128;SDS011;4599;50.906;6.786;2022-08-25T02:15:12;4.73;;;2.40;;
9128;SDS011;4599;50.906;6.786;2022-08-25T02:19:14;5.17;;;2.47;;
9128;SDS011;4599;50.906;6.786;2022-08-25T02:23:16;3.73;;;2.43;;
9128;SDS011;4599;50.906;6.786;2022-08-25T02:27:20;5.63;;;2.13;;
9128;SDS011;4599;50.906;6.786;2022-08-25T02:31:22;3.47;;;2.30;;
9128;SDS011;4599;50.906;6.786;2022-08-25T02:35:26;3.43;;;2.10;;
9128;SDS011;4599;50.906;6.786;2022-08-25T02:39:28;6.43;;;2.07;;
9128;SDS011;4599;50.906;6.786;2022-08-25T02:43:31;7.23;;;2.10;;
9128;SDS011;4599;50.906;6.786;2022-08-25T02:47:32;6.50;;;2.17;;
9128;SDS011;4599;50.906;6.786;2022-08-25T02:51:34;4.17;;;2.10;;
9128;SDS011;4599;50.906;6.786;2022-08-25T02:55:36;2.93;;;2.10;;
9128;SDS011;4599;50.906;6.786;2022-08-25T02:59:39;3.93;;;2.17;;
9128;SDS011;4599;50.906;6.786;2022-08-25T03:03:42;4.63;;;2.50;;
9128;SDS011;4599;50.906;6.786;2022-08-25T03:07:45;4.40;;;1.97;;
9128;SDS011;4599;50.906;6.786;2022-08-25T03:11:47;7.30;;;2.77;;
9128;SDS011;4599;50.906;6.786;2022-08-25T03:15:50;7.77;;;2.50;;
9128;SDS011;4599;50.906;6.786;2022-08-25T03:19:52;2.40;;;2.20;;
9128;SDS011;4599;50.906;6.786;2022-08-25T03:23:53;5.00;;;2.07;;
9128;SDS011;4599;50.906;6.786;2022-08-25T03:27:55;4.87;;;2.20;;
9128;SDS011;4599;50.906;6.786;2022-08-25T03:31:59;3.67;;;2.00;;
9128;SDS011;4599;50.906;6.786;2022-08-25T03:36:01;5.93;;;2.20;;
9128;SDS011;4599;50.906;6.786;2022-08-25T03:40:04;4.30;;;2.20;;
9128;SDS011;4599;50.906;6.786;2022-08-25T03:44:15;5.10;;;2.23;;
9128;SDS011;4599;50.906;6.786;2022-08-25T03:48:20;7.50;;;2.37;;
9128;SDS011;4599;50.906;6.786;2022-08-25T03:52:21;5.43;;;2.10;;
9128;SDS011;4599;50.906;6.786;2022-08-25T03:56:23;3.00;;;2.23;;
9128;SDS011;4599;50.906;6.786;2022-08-25T04:00:26;5.57;;;2.27;;
9128;SDS011;4599;50.906;6.786;2022-08-25T04:04:29;4.20;;;2.53;;
9128;SDS011;4599;50.906;6.786;2022-08-25T04:08:31;5.40;;;2.27;;
9128;SDS011;4599;50.906;6.786;2022-08-25T04:12:33;5.30;;;2.50;;
9128;SDS011;4599;50.906;6.786;2022-08-25T04:16:35;5.80;;;2.40;;
9128;SDS011;4599;50.906;6.786;2022-08-25T04:20:39;2.80;;;2.13;;
9128;SDS011;4599;50.906;6.786;2022-08-25T04:24:47;3.47;;;2.37;;
9128;SDS011;4599;50.906;6.786;2022-08-25T04:28:48;7.90;;;2.60;;
9128;SDS011;4599;50.906;6.786;2022-08-25T04:32:50;7.60;;;2.73;;
9128;SDS011;4599;50.906;6.786;2022-08-25T04:36:53;4.73;;;2.67;;
9128;SDS011;4599;50.906;6.786;2022-08-25T04:40:55;6.43;;;2.60;;
9128;SDS011;4599;50.906;6.786;2022-08-25T04:44:57;5.57;;;2.60;;
9128;SDS011;4599;50.906;6.786;2022-08-25T04:48:59;2.70;;;2.10;;
9128;SDS011;4599;50.906;6.786;2022-08-25T04:53:03;6.57;;;2.40;;
9128;SDS011;4599;50.906;6.786;2022-08-25T04:57:05;4.43;;;2.33;;
9128;SDS011;4599;50.906;6.786;2022-08-25T05:01:08;4.60;;;2.40;;
9128;SDS011;4599;50.906;6.786;2022-08-25T05:05:11;3.53;;;2.30;;
9128;SDS011;4599;50.906;6.786;2022-08-25T05:09:14;8.07;;;2.77;;
9128;SDS011;4599;50.906;6.786;2022-08-25T05:13:20;5.50;;;2.70;;
9128;SDS011;4599;50.906;6.786;2022-08-25T05:17:21;5.27;;;2.60;;
9128;SDS011;4599;50.906;6.786;2022-08-25T05:21:24;10.13;;;2.27;;
9128;SDS011;4599;50.906;6.786;2022-08-25T05:25:29;6.90;;;2.40;;
9128;SDS011;4599;50.906;6.786;2022-08-25T05:29:31;4.70;;;2.67;;
9128;SDS011;4599;50.906;6.786;2022-08-25T05:33:32;7.90;;;2.53;;
9128;SDS011;4599;50.906;6.786;2022-08-25T05:37:35;7.40;;;2.73;;
9128;SDS011;4599;50.906;6.786;2022-08-25T05:41:38;6.70;;;2.73;;
9128;SDS011;4599;50.906;6.786;2022-08-25T05:45:40;6.33;;;2.87;;
9128;SDS011;4599;50.906;6.786;2022-08-25T05:49:42;9.87;;;3.50;;
9128;SDS011;4599;50.906;6.786;2022-08-25T05:53:44;9.20;;;2.90;;
9128;SDS011;4599;50.906;6.786;2022-08-25T05:57:48;7.43;;;3.33;;
9128;SDS011;4599;50.906;6.786;2022-08-25T06:01:50;9.27;;;3.13;;
9128;SDS011;4599;50.906;6.786;2022-08-25T06:05:52;8.03;;;2.77;;
9128;SDS011;4599;50.906;6.786;2022-08-25T06:09:54;6.63;;;2.80;;
9128;SDS011;4599;50.906;6.786;2022-08-25T06:13:57;8.63;;;2.83;;
9128;SDS011;4599;50.906;6.786;2022-08-25T06:17:59;6.70;;;2.73;;
9128;SDS011;4599;50.906;6.786;2022-08-25T06:22:03;6.73;;;2.90;;
9128;SDS011;4599;50.906;6.786;2022-08-25T06:26:05;7.47;;;3.00;;
9128;SDS011;4599;50.906;6.786;2022-08-25T06:30:12;4.93;;;3.00;;
9128;SDS011;4599;50.906;6.786;2022-08-25T06:34:16;6.50;;;3.17;;
9128;SDS011;4599;50.906;6.786;2022-08-25T06:38:19;12.23;;;3.10;;
9128;SDS011;4599;50.906;6.786;2022-08-25T06:42:20;11.03;;;3.00;;
9128;SDS011;4599;50.906;6.786;2022-08-25T06:46:24;12.80;;;3.10;;
9128;SDS011;4599;50.906;6.786;2022-08-25T06:50:37;5.80;;;3.00;;
9128;SDS011;4599;50.906;6.786;2022-08-25T06:54:39;10.60;;;3.40;;
9128;SDS011;4599;50.906;6.786;2022-08-25T06:58:41;7.53;;;3.27;;
9128;SDS011;4599;50.906;6.786;2022-08-25T07:02:44;13.57;;;3.23;;
9128;SDS011;4599;50.906;6.786;2022-08-25T07:06:47;6.73;;;3.10;;
9128;SDS011;4599;50.906;6.786;2022-08-25T07:10:49;11.43;;;2.90;;
9128;SDS011;4599;50.906;6.786;2022-08-25T07:14:51;6.97;;;2.97;;
9128;SDS011;4599;50.906;6.786;2022-08-25T07:19:14;7.43;;;3.17;;
9128;SDS011;4599;50.906;6.786;2022-08-25T07:23:15;8.00;;;3.33;;
9128;SDS011;4599;50.906;6.786;2022-08-25T07:27:17;8.97;;;3.27;;
9128;SDS011;4599;50.906;6.786;2022-08-25T07:31:19;7.93;;;3.70;;
9128;SDS011;4599;50.906;6.786;2022-08-25T07:35:28;9.57;;;3.00;;
9128;SDS011;4599;50.906;6.786;2022-08-25T07:39:38;6.97;;;2.80;;
9128;SDS011;4599;50.906;6.786;2022-08-25T07:43:39;8.73;;;3.10;;
9128;SDS011;4599;50.906;6.786;2022-08-25T07:47:41;8.40;;;3.00;;
9128;SDS011;4599;50.906;6.786;2022-08-25T07:51:44;6.00;;;2.43;;
9128;SDS011;4599;50.906;6.786;2022-08-25T07:56:08;6.03;;;2.63;;
9128;SDS011;4599;50.906;6.786;2022-08-25T08:00:12;6.73;;;2.70;;
9128;SDS011;4599;50.906;6.786;2022-08-25T08:04:16;4.83;;;2.67;;
9128;SDS011;4599;50.906;6.786;2022-08-25T08:08:18;5.47;;;2.80;;
9128;SDS011;4599;50.906;6.786;2022-08-25T08:12:20;5.77;;;3.00;;
9128;SDS011;4599;50.906;6.786;2022-08-25T08:16:23;5.23;;;2.63;;
9128;SDS011;4599;50.906;6.786;2022-08-25T08:20:27;4.43;;;2.40;;
9128;SDS011;4599;50.906;6.786;2022-08-25T08:24:30;5.60;;;2.50;;
9128;SDS011;4599;50.906;6.786;2022-08-25T08:28:53;7.53;;;2.83;;
9128;SDS011;4599;50.906;6.786;2022-08-25T08:32:57;5.40;;;2.80;;
9128;SDS011;4599;50.906;6.786;2022-08-25T08:37:14;7.63;;;2.85;;
9128;SDS011;4599;50.906;6.786;2022-08-25T08:41:25;8.25;;;3.08;;
9128;SDS011;4599;50.906;6.786;2022-08-25T08:45:59;7.10;;;2.85;;
9128;SDS011;4599;50.906;6.786;2022-08-25T08:50:05;5.97;;;3.28;;
9128;SDS011;4599;50.906;6.786;2022-08-25T08:54:25;8.15;;;3.00;;
9128;SDS011;4599;50.906;6.786;2022-08-25T08:58:38;10.13;;;3.03;;
9128;SDS011;4599;50.906;6.786;2022-08-25T09:02:45;5.75;;;2.83;;
9128;SDS011;4599;50.906;6.786;2022-08-25T09:06:52;6.43;;;3.03;;
9128;SDS011;4599;50.906;6.786;2022-08-25T09:11:00;5.60;;;3.00;;
9128;SDS011;4599;50.906;6.786;2022-08-25T09:15:15;3.30;;;3.00;;
9128;SDS011;4599;50.906;6.786;2022-08-25T09:19:27;5.15;;;3.10;;
9128;SDS011;4599;50.906;6.786;2022-08-25T09:23:45;6.68;;;3.33;;
9128;SDS011;4599;50.906;6.786;2022-08-25T09:28:01;8.50;;;3.17;;
9128;SDS011;4599;50.906;6.786;2022-08-25T09:32:10;6.88;;;3.65;;
9128;SDS011;4599;50.906;6.786;2022-08-25T09:36:15;4.82;;;3.08;;
9128;SDS011;4599;50.906;6.786;2022-08-25T09:40:20;7.93;;;3.28;;
9128;SDS011;4599;50.906;6.786;2022-08-25T09:44:22;7.88;;;3.40;;
9128;SDS011;4599;50.906;6.786;2022-08-25T09:48:28;4.82;;;3.20;;
9128;SDS011;4599;50.906;6.786;2022-08-25T09:52:33;4.63;;;3.22;;
9128;SDS011;4599;50.906;6.786;2022-08-25T09:56:45;7.25;;;3.47;;
9128;SDS011;4599;50.906;6.786;2022-08-25T10:00:59;7.80;;;3.45;;
9128;SDS011;4599;50.906;6.786;2022-08-25T10:05:17;8.10;;;3.40;;
9128;SDS011;4599;50.906;6.786;2022-08-25T10:09:24;7.72;;;3.10;;
9128;SDS011;4599;50.906;6.786;2022-08-25T10:13:32;9.73;;;3.05;;
9128;SDS011;4599;50.906;6.786;2022-08-25T10:17:39;6.70;;;3.00;;
9128;SDS011;4599;50.906;6.786;2022-08-25T10:21:42;8.73;;;2.80;;
9128;SDS011;4599;50.906;6.786;2022-08-25T10:25:45;6.72;;;2.63;;
9128;SDS011;4599;50.906;6.786;2022-08-25T10:30:04;3.05;;;2.60;;
9128;SDS011;4599;50.906;6.786;2022-08-25T10:34:24;5.55;;;2.22;;
9128;SDS011;4599;50.906;6.786;2022-08-25T10:38:38;2.45;;;2.25;;
9128;SDS011;4599;50.906;6.786;2022-08-25T10:42:46;6.97;;;2.53;;
9128;SDS011;4599;50.906;6.786;2022-08-25T10:47:01;5.05;;;2.60;;
9128;SDS011;4599;50.906;6.786;2022-08-25T10:51:27;3.28;;;2.38;;
9128;SDS011;4599;50.906;6.786;2022-08-25T10:55:41;3.60;;;2.30;;
9128;SDS011;4599;50.906;6.786;2022-08-25T10:59:52;2.58;;;2.38;;
9128;SDS011;4599;50.906;6.786;2022-08-25T11:04:02;3.05;;;2.20;;
9128;SDS011;4599;50.906;6.786;2022-08-25T11:08:09;5.55;;;2.40;;
9128;SDS011;4599;50.906;6.786;2022-08-25T11:12:18;3.80;;;2.30;;
9128;SDS011;4599;50.906;6.786;2022-08-25T11:16:31;2.70;;;2.40;;
9128;SDS011;4599;50.906;6.786;2022-08-25T11:20:40;4.45;;;2.50;;
9128;SDS011;4599;50.906;6.786;2022-08-25T11:24:58;5.90;;;2.40;;
9128;SDS011;4599;50.906;6.786;2022-08-25T11:29:10;6.90;;;2.38;;
9128;SDS011;4599;50.906;6.786;2022-08-25T11:33:16;6.13;;;2.53;;
9128;SDS011;4599;50.906;6.786;2022-08-25T11:37:22;3.47;;;2.50;;
9128;SDS011;4599;50.906;6.786;2022-08-25T11:41:28;3.85;;;2.40;;
9128;SDS011;4599;50.906;6.786;2022-08-25T11:45:45;3.78;;;2.70;;
9128;SDS011;4599;50.906;6.786;2022-08-25T11:49:56;3.50;;;2.60;;
9128;SDS011;4599;50.906;6.786;2022-08-25T11:54:05;4.28;;;2.50;;
9128;SDS011;4599;50.906;6.786;2022-08-25T12:02:46;3.08;;;2.60;;
9128;SDS011;4599;50.906;6.786;2022-08-25T12:15:58;5.72;;;2.80;;
9128;SDS011;4599;50.906;6.786;2022-08-25T12:20:04;5.50;;;2.42;;
9128;SDS011;4599;50.906;6.786;2022-08-25T12:24:14;5.78;;;2.92;;
9128;SDS011;4599;50.906;6.786;2022-08-25T12:28:31;5.70;;;2.75;;
9128;SDS011;4599;50.906;6.786;2022-08-25T12:32:54;4.25;;;2.80;;
9128;SDS011;4599;50.906;6.786;2022-08-25T12:37:11;3.08;;;2.42;;
9128;SDS011;4599;50.906;6.786;2022-08-25T12:41:15;5.68;;;2.10;;
9128;SDS011;4599;50.906;6.786;2022-08-25T12:45:30;2.92;;;2.53;;
9128;SDS011;4599;50.906;6.786;2022-08-25T12:49:38;6.15;;;3.05;;
9128;SDS011;4599;50.906;6.786;2022-08-25T12:53:42;3.88;;;3.00;;
9128;SDS011;4599;50.906;6.786;2022-08-25T12:57:48;4.97;;;2.80;;
9128;SDS011;4599;50.906;6.786;2022-08-25T13:01:57;4.65;;;2.20;;
9128;SDS011;4599;50.906;6.786;2022-08-25T13:06:18;2.88;;;2.30;;
9128;SDS011;4599;50.906;6.786;2022-08-25T13:10:40;8.43;;;3.33;;
9128;SDS011;4599;50.906;6.786;2022-08-25T13:14:51;6.43;;;3.15;;
9128;SDS011;4599;50.906;6.786;2022-08-25T13:18:53;3.03;;;2.60;;
9128;SDS011;4599;50.906;6.786;2022-08-25T13:22:56;3.65;;;2.30;;
9128;SDS011;4599;50.906;6.786;2022-08-25T13:27:03;3.08;;;2.30;;
9128;SDS011;4599;50.906;6.786;2022-08-25T13:31:07;3.17;;;2.47;;
9128;SDS011;4599;50.906;6.786;2022-08-25T13:35:17;3.00;;;2.80;;
9128;SDS011;4599;50.906;6.786;2022-08-25T13:39:22;5.55;;;2.92;;
9128;SDS011;4599;50.906;6.786;2022-08-25T13:43:46;4.10;;;2.60;;
9128;SDS011;4599;50.906;6.786;2022-08-25T13:47:48;3.17;;;2.88;;
9128;SDS011;4599;50.906;6.786;2022-08-25T13:51:56;4.50;;;2.75;;
9128;SDS011;4599;50.906;6.786;2022-08-25T13:55:58;3.67;;;2.72;;
9128;SDS011;4599;50.906;6.786;2022-08-25T14:00:04;5.63;;;2.85;;
9128;SDS011;4599;50.906;6.786;2022-08-25T14:04:19;3.90;;;2.78;;
9128;SDS011;4599;50.906;6.786;2022-08-25T14:08:28;4.10;;;2.78;;
9128;SDS011;4599;50.906;6.786;2022-08-25T14:12:37;5.47;;;2.67;;
9128;SDS011;4599;50.906;6.786;2022-08-25T14:16:46;4.10;;;3.00;;
9128;SDS011;4599;50.906;6.786;2022-08-25T14:20:50;5.13;;;2.60;;
9128;SDS011;4599;50.906;6.786;2022-08-25T14:24:54;3.03;;;2.45;;
9128;SDS011;4599;50.906;6.786;2022-08-25T14:28:56;3.30;;;3.00;;
9128;SDS011;4599;50.906;6.786;2022-08-25T14:32:59;3.33;;;2.67;;
9128;SDS011;4599;50.906;6.786;2022-08-25T14:37:04;2.85;;;2.60;;
9128;SDS011;4599;50.906;6.786;2022-08-25T14:41:09;2.80;;;2.60;;
9128;SDS011;4599;50.906;6.786;2022-08-25T14:45:11;3.58;;;2.60;;
9128;SDS011;4599;50.906;6.786;2022-08-25T14:49:16;3.45;;;2.30;;
9128;SDS011;4599;50.906;6.786;2022-08-25T14:53:25;4.38;;;2.47;;
9128;SDS011;4599;50.906;6.786;2022-08-25T14:57:29;3.75;;;2.70;;
9128;SDS011;4599;50.906;6.786;2022-08-25T15:01:30;2.90;;;2.65;;
9128;SDS011;4599;50.906;6.786;2022-08-25T15:05:33;3.75;;;2.97;;
9128;SDS011;4599;50.906;6.786;2022-08-25T15:09:35;4.85;;;3.05;;
9128;SDS011;4599;50.906;6.786;2022-08-25T15:13:37;6.43;;;2.80;;
9128;SDS011;4599;50.906;6.786;2022-08-25T15:17:41;3.05;;;2.50;;
9128;SDS011;4599;50.906;6.786;2022-08-25T15:21:47;4.68;;;2.55;;
9128;SDS011;4599;50.906;6.786;2022-08-25T15:25:48;6.85;;;2.63;;
9128;SDS011;4599;50.906;6.786;2022-08-25T15:29:53;4.70;;;3.00;;
9128;SDS011;4599;50.906;6.786;2022-08-25T15:33:55;8.88;;;2.60;;
9128;SDS011;4599;50.906;6.786;2022-08-25T15:37:58;7.03;;;2.50;;
9128;SDS011;4599;50.906;6.786;2022-08-25T15:41:59;2.92;;;2.40;;
9128;SDS011;4599;50.906;6.786;2022-08-25T15:46:02;3.95;;;2.53;;
9128;SDS011;4599;50.906;6.786;2022-08-25T15:50:05;5.07;;;2.63;;
9128;SDS011;4599;50.906;6.786;2022-08-25T15:54:11;4.18;;;2.58;;
9128;SDS011;4599;50.906;6.786;2022-08-25T15:58:13;3.67;;;3.08;;
9128;SDS011;4599;50.906;6.786;2022-08-25T16:02:16;3.22;;;2.88;;
9128;SDS011;4599;50.906;6.786;2022-08-25T16:06:18;5.80;;;2.72;;
9128;SDS011;4599;50.906;6.786;2022-08-25T16:10:22;2.90;;;2.42;;
9128;SDS011;4599;50.906;6.786;2022-08-25T16:14:23;4.78;;;2.70;;
9128;SDS011;4599;50.906;6.786;2022-08-25T16:18:26;8.38;;;2.58;;
9128;SDS011;4599;50.906;6.786;2022-08-25T16:22:28;3.30;;;2.75;;
9128;SDS011;4599;50.906;6.786;2022-08-25T16:26:33;5.25;;;2.70;;
9128;SDS011;4599;50.906;6.786;2022-08-25T16:30:35;4.30;;;2.78;;
9128;SDS011;4599;50.906;6.786;2022-08-25T16:34:37;3.03;;;2.72;;
9128;SDS011;4599;50.906;6.786;2022-08-25T16:38:40;3.70;;;2.25;;
9128;SDS011;4599;50.906;6.786;2022-08-25T16:42:50;8.82;;;2.60;;
9128;SDS011;4599;50.906;6.786;2022-08-25T16:46:53;5.88;;;2.40;;
9128;SDS011;4599;50.906;6.786;2022-08-25T16:50:55;3.00;;;2.45;;
9128;SDS011;4599;50.906;6.786;2022-08-25T16:54:56;4.78;;;2.47;;
9128;SDS011;4599;50.906;6.786;2022-08-25T16:59:01;6.80;;;2.60;;
9128;SDS011;4599;50.906;6.786;2022-08-25T17:03:06;2.92;;;2.25;;
9128;SDS011;4599;50.906;6.786;2022-08-25T17:07:08;6.03;;;2.50;;
9128;SDS011;4599;50.906;6.786;2022-08-25T17:11:11;3.60;;;2.40;;
9128;SDS011;4599;50.906;6.786;2022-08-25T17:15:15;5.88;;;2.65;;
9128;SDS011;4599;50.906;6.786;2022-08-25T17:19:21;2.80;;;2.35;;
9128;SDS011;4599;50.906;6.786;2022-08-25T17:23:24;2.90;;;2.40;;
9128;SDS011;4599;50.906;6.786;2022-08-25T17:27:25;5.88;;;2.58;;
9128;SDS011;4599;50.906;6.786;2022-08-25T17:31:29;5.43;;;2.50;;
9128;SDS011;4599;50.906;6.786;2022-08-25T17:35:31;4.95;;;2.50;;
9128;SDS011;4599;50.906;6.786;2022-08-25T17:39:38;4.18;;;2.90;;
9128;SDS011;4599;50.906;6.786;2022-08-25T17:43:41;3.67;;;2.40;;
9128;SDS011;4599;50.906;6.786;2022-08-25T17:47:44;4.75;;;2.50;;
9128;SDS011;4599;50.906;6.786;2022-08-25T17:51:48;2.78;;;2.58;;
9128;SDS011;4599;50.906;6.786;2022-08-25T17:55:55;2.67;;;2.42;;
9128;SDS011;4599;50.906;6.786;2022-08-25T17:59:58;9.32;;;2.50;;
9128;SDS011;4599;50.906;6.786;2022-08-25T18:04:03;3.65;;;2.67;;
9128;SDS011;4599;50.906;6.786;2022-08-25T18:08:05;3.47;;;2.53;;
9128;SDS011;4599;50.906;6.786;2022-08-25T18:12:10;7.75;;;2.45;;
9128;SDS011;4599;50.906;6.786;2022-08-25T18:16:16;8.77;;;2.50;;
9128;SDS011;4599;50.906;6.786;2022-08-25T18:20:20;2.75;;;2.15;;
9128;SDS011;4599;50.906;6.786;2022-08-25T18:24:21;3.03;;;2.33;;
9128;SDS011;4599;50.906;6.786;2022-08-25T18:28:24;5.43;;;2.80;;
9128;SDS011;4599;50.906;6.786;2022-08-25T18:32:26;3.97;;;2.50;;
9128;SDS011;4599;50.906;6.786;2022-08-25T18:36:30;3.63;;;2.28;;
9128;SDS011;4599;50.906;6.786;2022-08-25T18:40:39;6.50;;;2.60;;
9128;SDS011;4599;50.906;6.786;2022-08-25T18:44:41;6.43;;;2.58;;
9128;SDS011;4599;50.906;6.786;2022-08-25T18:48:47;4.68;;;2.45;;
9128;SDS011;4599;50.906;6.786;2022-08-25T18:52:56;7.55;;;2.88;;
9128;SDS011;4599;50.906;6.786;2022-08-25T18:56:58;2.85;;;2.50;;
9128;SDS011;4599;50.906;6.786;2022-08-25T19:01:00;36.50;;;5.78;;
9128;SDS011;4599;50.906;6.786;2022-08-25T19:05:02;10.13;;;3.58;;
9128;SDS011;4599;50.906;6.786;2022-08-25T19:09:12;4.15;;;3.20;;
9128;SDS011;4599;50.906;6.786;2022-08-25T19:13:16;5.88;;;2.80;;
9128;SDS011;4599;50.906;6.786;2022-08-25T19:17:23;5.68;;;2.85;;
9128;SDS011;4599;50.906;6.786;2022-08-25T19:21:25;8.27;;;3.20;;
9128;SDS011;4599;50.906;6.786;2022-08-25T19:25:28;5.68;;;2.72;;
9128;SDS011;4599;50.906;6.786;2022-08-25T19:29:34;5.43;;;3.13;;
9128;SDS011;4599;50.906;6.786;2022-08-25T19:33:36;5.07;;;3.03;;
9128;SDS011;4599;50.906;6.786;2022-08-25T19:37:45;5.03;;;2.67;;
9128;SDS011;4599;50.906;6.786;2022-08-25T19:41:49;3.83;;;2.83;;
9128;SDS011;4599;50.906;6.786;2022-08-25T19:45:50;5.53;;;3.00;;
9128;SDS011;4599;50.906;6.786;2022-08-25T19:49:52;6.10;;;2.90;;
9128;SDS011;4599;50.906;6.786;2022-08-25T19:53:59;3.17;;;2.73;;
9128;SDS011;4599;50.906;6.786;2022-08-25T19:58:04;4.03;;;2.43;;
9128;SDS011;4599;50.906;6.786;2022-08-25T20:02:06;6.77;;;2.60;;
9128;SDS011;4599;50.906;6.786;2022-08-25T20:06:11;6.67;;;2.80;;
9128;SDS011;4599;50.906;6.786;2022-08-25T20:10:16;3.33;;;2.53;;
9128;SDS011;4599;50.906;6.786;2022-08-25T20:14:19;3.97;;;3.07;;
9128;SDS011;4599;50.906;6.786;2022-08-25T20:18:21;4.80;;;3.23;;
9128;SDS011;4599;50.906;6.786;2022-08-25T20:22:24;8.23;;;4.63;;
9128;SDS011;4599;50.906;6.786;2022-08-25T20:26:27;17.50;;;7.33;;
9128;SDS011;4599;50.906;6.786;2022-08-25T20:30:30;19.47;;;8.43;;
9128;SDS011;4599;50.906;6.786;2022-08-25T20:34:32;14.03;;;6.93;;
9128;SDS011;4599;50.906;6.786;2022-08-25T20:38:34;20.47;;;8.87;;
9128;SDS011;4599;50.906;6.786;2022-08-25T20:42:36;28.87;;;12.70;;
9128;SDS011;4599;50.906;6.786;2022-08-25T20:46:38;37.53;;;14.77;;
9128;SDS011;4599;50.906;6.786;2022-08-25T20:50:42;53.03;;;20.60;;
9128;SDS011;4599;50.906;6.786;2022-08-25T20:54:45;69.97;;;26.17;;
9128;SDS011;4599;50.906;6.786;2022-08-25T20:58:50;72.97;;;28.47;;
9128;SDS011;4599;50.906;6.786;2022-08-25T21:02:53;76.77;;;28.30;;
9128;SDS011;4599;50.906;6.786;2022-08-25T21:06:55;40.37;;;17.60;;
9128;SDS011;4599;50.906;6.786;2022-08-25T21:10:58;32.00;;;13.43;;
9128;SDS011;4599;50.906;6.786;2022-08-25T21:15:01;36.70;;;14.30;;
9128;SDS011;4599;50.906;6.786;2022-08-25T21:19:05;30.47;;;12.00;;
9128;SDS011;4599;50.906;6.786;2022-08-25T21:23:11;25.03;;;11.40;;
9128;SDS011;4599;50.906;6.786;2022-08-25T21:27:13;24.90;;;9.43;;
9128;SDS011;4599;50.906;6.786;2022-08-25T21:31:15;19.83;;;8.83;;
9128;SDS011;4599;50.906;6.786;2022-08-25T21:35:20;20.70;;;7.90;;
9128;SDS011;4599;50.906;6.786;2022-08-25T21:39:23;13.67;;;5.90;;
9128;SDS011;4599;50.906;6.786;2022-08-25T21:43:25;9.63;;;5.50;;
9128;SDS011;4599;50.906;6.786;2022-08-25T21:47:30;10.10;;;5.40;;
9128;SDS011;4599;50.906;6.786;2022-08-25T21:51:37;11.53;;;4.60;;
9128;SDS011;4599;50.906;6.786;2022-08-25T21:55:41;8.73;;;3.93;;
9128;SDS011;4599;50.906;6.786;2022-08-25T21:59:42;8.57;;;4.20;;
9128;SDS011;4599;50.906;6.786;2022-08-25T22:03:44;11.37;;;4.50;;
9128;SDS011;4599;50.906;6.786;2022-08-25T22:07:48;11.47;;;4.33;;
9128;SDS011;4599;50.906;6.786;2022-08-25T22:11:52;6.43;;;4.13;;
9128;SDS011;4599;50.906;6.786;2022-08-25T22:15:55;7.90;;;4.50;;
9128;SDS011;4599;50.906;6.786;2022-08-25T22:19:57;7.43;;;4.20;;
9128;SDS011;4599;50.906;6.786;2022-08-25T22:24:01;9.00;;;4.40;;
9128;SDS011;4599;50.906;6.786;2022-08-25T22:28:03;8.53;;;4.30;;
9128;SDS011;4599;50.906;6.786;2022-08-25T22:32:05;9.70;;;4.17;;
9128;SDS011;4599;50.906;6.786;2022-08-25T22:36:12;6.70;;;4.37;;
9128;SDS011;4599;50.906;6.786;2022-08-25T22:40:20;9.47;;;4.47;;
9128;SDS011;4599;50.906;6.786;2022-08-25T22:44:21;8.83;;;4.93;;
9128;SDS011;4599;50.906;6.786;2022-08-25T22:48:23;8.00;;;5.00;;
9128;SDS011;4599;50.906;6.786;2022-08-25T22:52:26;9.97;;;4.40;;
9128;SDS011;4599;50.906;6.786;2022-08-25T22:56:35;9.03;;;5.20;;
9128;SDS011;4599;50.906;6.786;2022-08-25T23:00:38;6.83;;;4.80;;
9128;SDS011;4599;50.906;6.786;2022-08-25T23:04:42;11.43;;;5.77;;
9128;SDS011;4599;50.906;6.786;2022-08-25T23:08:44;10.23;;;6.03;;
9128;SDS011;4599;50.906;6.786;2022-08-25T23:12:48;12.03;;;5.33;;
9128;SDS011;4599;50.906;6.786;2022-08-25T23:16:49;11.93;;;5.20;;
9128;SDS011;4599;50.906;6.786;2022-08-25T23:20:51;10.00;;;4.30;;
9128;SDS011;4599;50.906;6.786;2022-08-25T23:24:53;10.00;;;4.40;;
9128;SDS011;4599;50.906;6.786;2022-08-25T23:28:56;5.80;;;4.00;;
9128;SDS011;4599;50.906;6.786;2022-08-25T23:32:58;14.90;;;3.63;;
9128;SDS011;4599;50.906;6.786;2022-08-25T23:37:00;7.47;;;3.80;;
9128;SDS011;4599;50.906;6.786;2022-08-25T23:41:03;9.60;;;3.80;;
9128;SDS011;4599;50.906;6.786;2022-08-25T23:45:08;10.97;;;4.20;;
9128;SDS011;4599;50.906;6.786;2022-08-25T23:49:11;19.93;;;4.47;;
9128;SDS011;4599;50.906;6.786;2022-08-25T23:53:13;8.87;;;4.87;;
9128;SDS011;4599;50.906;6.786;2022-08-25T23:57:16;10.43;;;6.33;;
